Time;durP1;ratioP1;P1;durP2;ratioP2;P2;SDS_P1;SDS_P2;PMS_P1;PMS_P2;Temp;Humidity;BMP_temperature;BMP_pressure;BME280_temperature;BME280_humidity;BME280_pressure;Samples;Min_cycle;Max_cycle;Signal;HPM_P1;HPM_P2
2020/12/22 00:02:19;;;;;;;9.63;5.22;;;9.90;99.90;;;;;;5052383;28;20418;-53
2020/12/22 00:04:45;;;;;;;10.67;5.73;;;10.00;99.90;;;;;;5051669;28;20397;-52
2020/12/22 00:07:11;;;;;;;9.73;5.10;;;10.10;99.90;;;;;;5052028;28;20396;-53
2020/12/22 00:09:36;;;;;;;9.00;5.40;;;10.00;99.90;;;;;;5051766;28;20439;-53
2020/12/22 00:12:11;;;;;;;8.48;5.30;;;10.00;99.90;;;;;;5033725;28;20413;-58
2020/12/22 00:14:36;;;;;;;7.70;5.07;;;10.10;99.90;;;;;;5051860;28;20400;-53
2020/12/22 00:17:04;;;;;;;8.38;4.88;;;9.90;99.90;;;;;;5051766;28;20397;-58
2020/12/22 00:19:30;;;;;;;7.90;4.00;;;10.00;99.90;;;;;;5051288;28;20486;-52
2020/12/22 00:21:55;;;;;;;7.72;4.50;;;10.00;99.90;;;;;;5052655;28;20413;-53
2020/12/22 00:24:21;;;;;;;7.10;4.03;;;10.10;99.90;;;;;;5051857;28;20822;-53
2020/12/22 00:26:49;;;;;;;6.55;3.53;;;10.20;99.90;;;;;;5051110;28;20389;-52
2020/12/22 00:29:15;;;;;;;6.53;3.88;;;10.20;99.90;;;;;;5051385;28;20389;-53
2020/12/22 00:31:41;;;;;;;6.20;2.80;;;10.30;99.90;;;;;;5051309;28;20504;-53
2020/12/22 00:34:06;;;;;;;5.90;3.20;;;10.30;99.90;;;;;;5051104;28;20413;-54
2020/12/22 00:36:32;;;;;;;4.47;2.10;;;10.40;99.90;;;;;;5050477;28;20398;-53
2020/12/22 00:38:58;;;;;;;4.63;2.23;;;10.40;99.90;;;;;;5051831;28;20381;-53
2020/12/22 00:41:23;;;;;;;4.40;2.00;;;10.50;99.90;;;;;;5050111;28;20393;-52
2020/12/22 00:43:49;;;;;;;4.20;1.80;;;10.60;99.90;;;;;;5043327;28;20382;-53
2020/12/22 00:46:16;;;;;;;3.55;1.70;;;10.50;99.90;;;;;;5050250;28;20405;-54
2020/12/22 00:48:48;;;;;;;3.72;1.80;;;10.70;99.90;;;;;;5039217;28;20861;-53
2020/12/22 00:51:23;;;;;;;4.40;2.22;;;10.60;99.90;;;;;;5046489;28;20401;-53
2020/12/22 00:53:49;;;;;;;4.53;2.05;;;10.60;99.90;;;;;;5052095;28;20401;-53
2020/12/22 00:56:15;;;;;;;4.55;2.00;;;10.70;99.90;;;;;;5050469;28;20396;-52
2020/12/22 00:58:41;;;;;;;4.70;2.10;;;10.70;99.90;;;;;;5051902;28;20382;-53
2020/12/22 01:01:07;;;;;;;4.10;1.73;;;10.70;99.90;;;;;;5032411;28;20742;-54
2020/12/22 01:03:33;;;;;;;4.40;2.00;;;10.70;99.90;;;;;;5051747;28;20926;-53
2020/12/22 01:05:59;;;;;;;4.10;1.50;;;10.80;99.90;;;;;;5051530;28;20377;-53
2020/12/22 01:08:24;;;;;;;3.70;1.70;;;10.80;99.90;;;;;;5050086;28;20416;-54
2020/12/22 01:10:50;;;;;;;4.28;1.40;;;10.90;99.90;;;;;;5052220;28;20464;-53
2020/12/22 01:13:16;;;;;;;4.40;1.67;;;10.80;99.90;;;;;;5049731;28;20471;-54
2020/12/22 01:15:41;;;;;;;3.50;1.20;;;10.90;99.90;;;;;;5051804;28;20450;-53
2020/12/22 01:18:07;;;;;;;3.40;1.40;;;11.00;99.90;;;;;;5049896;28;20404;-57
2020/12/22 01:20:33;;;;;;;2.90;1.00;;;11.00;99.90;;;;;;5051695;28;20385;-52
2020/12/22 01:22:58;;;;;;;3.23;1.00;;;10.90;99.90;;;;;;5051366;28;20432;-53
2020/12/22 01:25:25;;;;;;;3.33;1.20;;;11.10;99.90;;;;;;5049066;28;20405;-53
2020/12/22 01:27:52;;;;;;;2.70;0.77;;;11.20;99.90;;;;;;5050706;28;20851;-53
2020/12/22 01:30:17;;;;;;;4.00;0.90;;;11.20;99.90;;;;;;5049578;28;20393;-54
2020/12/22 01:32:44;;;;;;;2.80;0.83;;;11.30;99.90;;;;;;5050134;28;20403;-53
2020/12/22 01:35:10;;;;;;;2.47;0.60;;;11.40;99.90;;;;;;5049732;28;20416;-53
2020/12/22 01:37:36;;;;;;;2.50;0.50;;;11.50;99.90;;;;;;5048874;28;20842;-54
2020/12/22 01:40:02;;;;;;;2.37;0.47;;;11.40;99.90;;;;;;5050252;28;20391;-53
2020/12/22 01:42:28;;;;;;;3.90;0.70;;;11.50;99.90;;;;;;5049206;28;21204;-53
2020/12/22 01:44:54;;;;;;;2.53;0.50;;;11.40;99.90;;;;;;5048881;28;20398;-53
2020/12/22 01:47:21;;;;;;;2.40;0.53;;;11.50;99.90;;;;;;5049388;28;20420;-53
2020/12/22 01:49:47;;;;;;;2.60;0.60;;;11.50;99.90;;;;;;5048776;28;20459;-53
2020/12/22 01:52:12;;;;;;;2.47;0.57;;;11.50;99.90;;;;;;5049229;28;20860;-53
2020/12/22 01:54:38;;;;;;;2.20;0.40;;;11.40;99.90;;;;;;5047783;28;20397;-55
2020/12/22 01:57:11;;;;;;;2.90;0.60;;;11.50;99.90;;;;;;5050049;28;20482;-53
2020/12/22 01:59:37;;;;;;;2.40;0.70;;;11.40;99.90;;;;;;5047846;28;20397;-53
2020/12/22 02:02:03;;;;;;;2.30;0.40;;;11.50;99.90;;;;;;5049273;28;20439;-53
2020/12/22 02:04:28;;;;;;;3.20;0.60;;;11.50;99.90;;;;;;5048155;28;20417;-53
2020/12/22 02:06:55;;;;;;;3.20;0.70;;;11.50;99.90;;;;;;5049866;28;20387;-53
2020/12/22 02:09:21;;;;;;;2.30;0.40;;;11.50;99.90;;;;;;5046965;28;20397;-53
2020/12/22 02:11:46;;;;;;;2.58;0.57;;;11.60;99.90;;;;;;5049509;28;20889;-53
2020/12/22 02:14:12;;;;;;;2.30;0.60;;;11.60;99.90;;;;;;5049149;28;20385;-53
2020/12/22 02:16:38;;;;;;;2.30;0.40;;;11.60;99.90;;;;;;5048382;28;20496;-53
2020/12/22 02:19:04;;;;;;;2.20;0.40;;;11.60;99.90;;;;;;5049594;28;20489;-52
2020/12/22 02:21:30;;;;;;;3.95;0.40;;;11.60;99.90;;;;;;5047559;28;20440;-53
2020/12/22 02:23:56;;;;;;;2.30;0.40;;;11.50;99.90;;;;;;5049252;28;20732;-53
2020/12/22 02:26:25;;;;;;;2.10;0.30;;;11.50;99.90;;;;;;5048433;28;20455;-53
2020/12/22 02:28:55;;;;;;;2.40;0.50;;;11.60;99.90;;;;;;5048084;28;20440;-53
2020/12/22 02:31:23;;;;;;;2.30;0.50;;;11.60;99.90;;;;;;5048392;28;20392;-53
2020/12/22 02:33:49;;;;;;;2.17;0.55;;;11.60;99.90;;;;;;5002194;28;1300730;-53
2020/12/22 02:36:14;;;;;;;2.70;0.60;;;11.60;99.90;;;;;;5049255;28;20393;-51
2020/12/22 02:38:41;;;;;;;2.20;0.90;;;11.60;99.90;;;;;;5049690;28;20477;-56
2020/12/22 02:41:07;;;;;;;2.40;1.00;;;11.70;99.90;;;;;;5047857;28;20405;-57
2020/12/22 02:43:33;;;;;;;3.13;1.15;;;11.60;99.90;;;;;;5047956;28;20416;-53
2020/12/22 02:45:59;;;;;;;2.20;0.70;;;11.70;99.90;;;;;;5049088;28;20783;-52
2020/12/22 02:48:25;;;;;;;2.22;0.80;;;11.70;99.90;;;;;;5048155;28;20423;-53
2020/12/22 02:50:51;;;;;;;2.20;0.90;;;11.60;99.90;;;;;;5049626;28;20385;-52
2020/12/22 02:53:17;;;;;;;2.90;0.70;;;11.60;99.90;;;;;;5048014;28;20408;-54
2020/12/22 02:55:42;;;;;;;2.20;0.70;;;11.50;99.90;;;;;;5049484;28;20854;-58
2020/12/22 02:58:08;;;;;;;2.70;0.70;;;11.50;99.90;;;;;;5049579;28;20430;-58
2020/12/22 03:00:34;;;;;;;2.58;1.00;;;11.50;99.90;;;;;;5048321;28;20394;-53
2020/12/22 03:03:00;;;;;;;2.27;1.00;;;11.50;99.90;;;;;;5049596;28;20405;-52
2020/12/22 03:05:25;;;;;;;2.50;1.58;;;11.60;99.90;;;;;;5047703;28;20394;-53
2020/12/22 03:07:51;;;;;;;2.60;1.20;;;11.50;99.90;;;;;;5032012;28;20385;-53
2020/12/22 03:10:18;;;;;;;2.20;0.60;;;11.60;99.90;;;;;;5047146;28;20405;-53
2020/12/22 03:12:45;;;;;;;2.35;0.60;;;11.50;99.90;;;;;;5049235;28;20417;-52
2020/12/22 03:15:11;;;;;;;2.80;0.60;;;11.50;99.90;;;;;;5049287;28;20471;-53
2020/12/22 03:17:37;;;;;;;2.65;0.50;;;11.40;99.90;;;;;;5048411;28;20415;-52
2020/12/22 03:20:08;;;;;;;2.47;0.60;;;11.50;99.90;;;;;;5049445;28;20390;-53
2020/12/22 03:22:37;;;;;;;2.60;0.60;;;11.40;99.90;;;;;;5049223;28;20401;-53
2020/12/22 03:25:04;;;;;;;2.50;0.70;;;11.40;99.90;;;;;;5048851;28;20451;-53
2020/12/22 03:27:30;;;;;;;2.80;0.80;;;11.40;99.90;;;;;;5048720;28;20381;-52
2020/12/22 03:29:56;;;;;;;2.17;0.50;;;11.40;99.90;;;;;;5048248;28;20759;-53
2020/12/22 03:32:21;;;;;;;2.10;0.50;;;11.50;99.90;;;;;;5048589;28;20385;-52
2020/12/22 03:34:47;;;;;;;2.15;0.50;;;11.50;99.90;;;;;;5032156;28;20417;-53
2020/12/22 03:37:19;;;;;;;2.40;0.60;;;11.40;99.90;;;;;;5048653;28;20405;-52
2020/12/22 03:39:47;;;;;;;2.20;0.60;;;11.50;99.90;;;;;;5049213;28;20710;-53
2020/12/22 03:42:12;;;;;;;3.60;0.70;;;11.50;99.90;;;;;;5047846;28;20878;-53
2020/12/22 03:44:38;;;;;;;2.30;0.70;;;11.40;99.90;;;;;;5049634;28;20396;-53
2020/12/22 03:47:04;;;;;;;2.47;0.70;;;11.40;99.90;;;;;;5049399;28;20389;-52
2020/12/22 03:49:29;;;;;;;2.20;0.70;;;11.40;99.90;;;;;;5048692;28;20396;-52
2020/12/22 03:51:55;;;;;;;2.20;0.60;;;11.40;99.90;;;;;;5049472;28;20910;-53
2020/12/22 03:54:20;;;;;;;2.20;0.60;;;11.30;99.90;;;;;;5048661;28;20427;-53
2020/12/22 03:56:46;;;;;;;2.20;0.60;;;11.30;99.90;;;;;;5049282;28;20425;-52
2020/12/22 03:59:12;;;;;;;2.20;0.60;;;11.30;99.90;;;;;;5048174;28;20385;-53
2020/12/22 04:01:37;;;;;;;2.20;0.60;;;11.30;99.90;;;;;;5049511;28;20740;-53
2020/12/22 04:04:03;;;;;;;2.80;0.70;;;11.30;99.90;;;;;;5049406;28;20429;-52
2020/12/22 04:06:28;;;;;;;2.40;0.70;;;11.20;99.90;;;;;;5048308;28;20512;-53
2020/12/22 04:08:54;;;;;;;2.20;0.70;;;11.30;99.90;;;;;;5049162;28;20413;-53
2020/12/22 04:11:21;;;;;;;2.30;0.80;;;11.30;99.90;;;;;;5048458;28;20378;-56
2020/12/22 04:13:47;;;;;;;2.30;0.70;;;11.30;99.90;;;;;;5049199;28;20418;-52
2020/12/22 04:16:13;;;;;;;2.30;0.70;;;11.30;99.90;;;;;;5048589;28;20476;-53
2020/12/22 04:18:38;;;;;;;2.20;0.50;;;11.40;99.90;;;;;;5048810;28;20380;-53
2020/12/22 04:21:04;;;;;;;3.28;0.90;;;11.40;99.90;;;;;;5049548;28;20381;-53
2020/12/22 04:23:30;;;;;;;2.43;0.80;;;11.40;99.90;;;;;;5050633;28;20902;-52
2020/12/22 04:25:55;;;;;;;2.28;0.60;;;11.40;99.90;;;;;;5052688;28;20385;-56
2020/12/22 04:28:21;;;;;;;2.30;0.70;;;11.40;99.90;;;;;;5051604;28;20404;-53
2020/12/22 04:30:47;;;;;;;2.30;0.60;;;11.40;99.90;;;;;;5052372;28;20396;-53
2020/12/22 04:33:13;;;;;;;2.10;0.50;;;11.40;99.90;;;;;;5051802;28;20790;-53
2020/12/22 04:35:40;;;;;;;2.50;0.70;;;11.40;99.90;;;;;;5052742;28;20465;-53
2020/12/22 04:38:06;;;;;;;2.67;0.80;;;11.40;99.90;;;;;;5052521;28;20381;-53
2020/12/22 04:40:32;;;;;;;2.60;0.70;;;11.50;99.90;;;;;;5051860;28;20456;-54
2020/12/22 04:43:01;;;;;;;2.40;0.50;;;11.60;99.90;;;;;;5052305;28;20420;-54
2020/12/22 04:45:28;;;;;;;2.20;0.40;;;11.60;99.90;;;;;;5051771;28;20909;-54
2020/12/22 04:47:55;;;;;;;2.25;0.40;;;11.70;99.90;;;;;;5052520;28;20897;-53
2020/12/22 04:50:21;;;;;;;2.30;0.68;;;11.60;99.90;;;;;;5051852;28;20377;-54
2020/12/22 04:52:47;;;;;;;2.40;0.95;;;11.70;99.90;;;;;;5052406;28;20715;-52
2020/12/22 04:55:14;;;;;;;2.50;0.50;;;11.70;99.90;;;;;;5051737;28;20406;-54
2020/12/22 04:57:50;;;;;;;2.10;0.40;;;11.80;99.90;;;;;;5052098;28;20388;-53
2020/12/22 05:00:17;;;;;;;2.10;0.30;;;11.80;99.90;;;;;;5051252;28;20727;-56
2020/12/22 05:02:43;;;;;;;3.00;0.30;;;11.90;99.90;;;;;;5051976;28;20875;-54
2020/12/22 05:05:10;;;;;;;2.33;0.47;;;11.80;99.90;;;;;;5051892;28;20413;-58
2020/12/22 05:07:40;;;;;;;2.10;0.30;;;11.80;99.90;;;;;;5049007;28;20539;-54
2020/12/22 05:10:11;;;;;;;2.25;0.30;;;11.90;99.90;;;;;;5052180;28;20377;-54
2020/12/22 05:12:41;;;;;;;3.50;0.40;;;12.00;99.90;;;;;;5052072;28;20905;-53
2020/12/22 05:15:09;;;;;;;2.40;0.30;;;12.00;99.90;;;;;;5051958;28;20485;-52
2020/12/22 05:17:52;;;;;;;2.20;0.30;;;12.00;99.90;;;;;;5043842;28;20373;-52
2020/12/22 05:20:20;;;;;;;2.78;0.30;;;12.10;99.90;;;;;;5051156;28;20392;-52
2020/12/22 05:22:47;;;;;;;2.63;0.40;;;12.10;99.90;;;;;;5051732;28;20401;-53
2020/12/22 05:25:20;;;;;;;2.80;0.40;;;12.10;99.90;;;;;;5051333;28;20389;-55
2020/12/22 05:27:48;;;;;;;3.60;0.40;;;12.30;99.90;;;;;;5051495;28;20378;-54
2020/12/22 05:30:20;;;;;;;2.40;0.40;;;12.20;99.90;;;;;;5032895;28;20471;-53
2020/12/22 05:32:50;;;;;;;2.20;0.40;;;12.20;99.90;;;;;;5051321;28;20385;-53
2020/12/22 05:35:18;;;;;;;2.30;0.50;;;12.20;99.90;;;;;;5050906;28;20439;-56
2020/12/22 05:37:46;;;;;;;2.15;0.30;;;12.20;99.90;;;;;;5051306;28;21030;-53
2020/12/22 05:40:15;;;;;;;2.20;0.40;;;12.20;99.90;;;;;;5050800;28;20382;-54
2020/12/22 05:42:42;;;;;;;4.30;0.40;;;12.20;99.90;;;;;;5048593;28;20401;-53
2020/12/22 05:45:08;;;;;;;3.00;0.40;;;12.20;99.90;;;;;;5050276;28;20397;-58
2020/12/22 05:47:34;;;;;;;2.30;0.40;;;12.30;99.90;;;;;;5051098;28;20420;-53
2020/12/22 05:50:00;;;;;;;2.40;0.40;;;12.30;99.90;;;;;;5049522;28;20393;-52
2020/12/22 05:52:28;;;;;;;2.60;0.37;;;12.30;99.90;;;;;;5050238;28;20480;-53
2020/12/22 05:54:56;;;;;;;3.03;0.80;;;12.30;99.90;;;;;;5032122;28;20397;-53
2020/12/22 05:57:26;;;;;;;2.35;0.40;;;12.30;99.90;;;;;;5050050;28;20404;-52
2020/12/22 05:59:53;;;;;;;2.20;0.30;;;12.30;99.90;;;;;;5049463;28;20796;-53
2020/12/22 06:02:39;;;;;;;2.20;0.30;;;12.30;99.90;;;;;;5049141;28;20748;-53
2020/12/22 06:05:05;;;;;;;2.50;0.70;;;12.20;99.90;;;;;;5050505;28;20400;-52
2020/12/22 06:07:31;;;;;;;2.30;0.50;;;12.30;99.90;;;;;;5047900;28;21264;-52
2020/12/22 06:09:57;;;;;;;2.30;0.50;;;12.30;99.90;;;;;;5050804;28;20386;-53
2020/12/22 06:12:24;;;;;;;2.90;0.40;;;12.40;99.90;;;;;;5048446;28;20405;-53
2020/12/22 06:14:54;;;;;;;2.30;0.90;;;12.40;99.90;;;;;;5050586;28;20385;-53
2020/12/22 06:17:21;;;;;;;2.30;0.30;;;12.30;99.90;;;;;;5050188;28;20740;-54
2020/12/22 06:19:48;;;;;;;2.40;0.40;;;12.30;99.90;;;;;;5049121;28;20421;-52
2020/12/22 06:22:17;;;;;;;2.88;0.35;;;12.40;99.90;;;;;;5049801;28;20440;-53
2020/12/22 06:24:44;;;;;;;2.83;0.38;;;12.30;99.90;;;;;;5049346;28;20482;-53
2020/12/22 06:27:12;;;;;;;2.23;0.40;;;12.30;99.90;;;;;;5050455;28;20404;-58
2020/12/22 06:29:42;;;;;;;2.40;0.90;;;12.40;99.90;;;;;;5048953;28;20393;-52
2020/12/22 06:32:16;;;;;;;3.10;0.40;;;12.40;99.90;;;;;;5050356;28;20471;-52
2020/12/22 06:34:43;;;;;;;2.40;0.50;;;12.50;99.90;;;;;;5045777;28;20524;-52
2020/12/22 06:37:10;;;;;;;2.35;0.47;;;12.50;99.90;;;;;;5049229;28;20401;-55
2020/12/22 06:39:49;;;;;;;2.78;0.60;;;12.50;99.90;;;;;;5050268;28;20381;-53
2020/12/22 06:42:30;;;;;;;2.30;0.40;;;12.50;99.90;;;;;;5048129;28;20409;-52
2020/12/22 06:45:15;;;;;;;2.30;0.40;;;12.40;99.90;;;;;;5049882;28;20401;-53
2020/12/22 06:47:40;;;;;;;2.50;0.40;;;12.40;99.90;;;;;;5049560;28;20400;-52
2020/12/22 06:50:06;;;;;;;2.80;0.40;;;12.50;99.90;;;;;;5049224;28;20402;-52
2020/12/22 06:52:36;;;;;;;3.30;1.05;;;12.50;99.90;;;;;;5048954;28;20913;-53
2020/12/22 06:55:07;;;;;;;2.40;0.80;;;12.60;99.90;;;;;;5049101;28;20401;-52
2020/12/22 06:57:44;;;;;;;2.77;0.40;;;12.40;99.90;;;;;;5039999;28;20401;-53
2020/12/22 07:00:23;;;;;;;2.40;0.50;;;12.50;99.90;;;;;;5049145;28;20890;-56
2020/12/22 07:02:49;;;;;;;2.50;0.40;;;12.50;99.90;;;;;;5048048;28;20417;-54
2020/12/22 07:05:43;;;;;;;2.10;0.40;;;12.40;99.90;;;;;;5049066;28;20436;-52
2020/12/22 07:08:11;;;;;;;2.60;0.40;;;12.40;99.90;;;;;;5048317;28;20928;-56
2020/12/22 07:10:48;;;;;;;2.35;0.43;;;12.50;99.90;;;;;;5049463;28;20575;-52
2020/12/22 07:13:16;;;;;;;2.20;0.40;;;12.60;99.90;;;;;;5046952;28;20455;-53
2020/12/22 07:15:47;;;;;;;2.20;0.40;;;12.60;99.90;;;;;;5048126;28;20401;-52
2020/12/22 07:18:17;;;;;;;2.60;0.50;;;12.70;99.90;;;;;;5048691;28;20461;-53
2020/12/22 07:20:44;;;;;;;2.40;0.50;;;12.70;99.90;;;;;;5049292;28;20369;-52
2020/12/22 07:23:11;;;;;;;2.40;0.50;;;12.50;99.90;;;;;;5047456;28;20405;-54
2020/12/22 07:25:38;;;;;;;3.40;0.50;;;12.50;99.90;;;;;;5049416;28;20396;-52
2020/12/22 07:28:05;;;;;;;2.20;0.40;;;12.60;99.90;;;;;;5048555;28;20429;-52
2020/12/22 07:30:31;;;;;;;2.20;0.40;;;12.50;99.90;;;;;;5047623;28;20451;-54
2020/12/22 07:33:01;;;;;;;2.60;0.60;;;12.60;99.90;;;;;;5049182;28;20397;-51
2020/12/22 07:35:28;;;;;;;2.20;0.50;;;12.70;99.90;;;;;;5044555;28;20421;-52
2020/12/22 07:38:05;;;;;;;3.80;0.60;;;12.70;99.90;;;;;;5027950;28;20764;-52
2020/12/22 07:40:30;;;;;;;4.20;0.98;;;12.70;99.90;;;;;;5025477;28;20407;-51
2020/12/22 07:43:10;;;;;;;3.20;1.10;;;12.70;99.90;;;;;;5026705;28;20745;-52
2020/12/22 07:45:45;;;;;;;2.38;0.90;;;12.60;99.90;;;;;;5026700;28;20475;-52
2020/12/22 07:48:11;;;;;;;4.00;1.10;;;12.60;99.90;;;;;;5027722;28;20469;-56
2020/12/22 07:50:37;;;;;;;2.83;1.20;;;12.60;99.90;;;;;;5028683;28;20411;-52
2020/12/22 07:53:02;;;;;;;3.40;1.07;;;12.70;99.90;;;;;;5027071;28;20399;-52
2020/12/22 07:55:39;;;;;;;2.90;0.85;;;12.70;99.90;;;;;;5027707;28;20834;-53
2020/12/22 07:58:09;;;;;;;2.53;0.60;;;12.70;99.90;;;;;;5027823;28;20850;-50
2020/12/22 08:00:35;;;;;;;2.70;0.70;;;12.70;99.90;;;;;;5029757;28;20398;-51
2020/12/22 08:03:18;;;;;;;3.30;0.75;;;12.70;99.90;;;;;;5030090;28;20874;-51
2020/12/22 08:06:00;;;;;;;3.25;0.50;;;12.80;99.90;;;;;;5008550;28;20863;-51
2020/12/22 08:08:26;;;;;;;2.90;1.10;;;12.80;99.90;;;;;;5030197;28;20395;-51
2020/12/22 08:10:52;;;;;;;3.38;1.25;;;12.90;99.90;;;;;;5030111;28;20411;-52
2020/12/22 08:13:20;;;;;;;3.10;1.30;;;12.90;99.90;;;;;;5028668;28;20482;-51
2020/12/22 08:15:46;;;;;;;3.30;0.60;;;12.90;99.90;;;;;;5029684;28;20390;-51
2020/12/22 08:18:12;;;;;;;2.30;0.40;;;13.00;99.90;;;;;;5028696;28;20403;-55
2020/12/22 08:20:38;;;;;;;2.40;0.50;;;13.00;99.90;;;;;;5029548;28;20391;-51
2020/12/22 08:23:05;;;;;;;2.40;0.60;;;13.00;99.90;;;;;;5029417;28;20429;-51
2020/12/22 08:25:31;;;;;;;2.80;0.70;;;13.00;99.90;;;;;;5027571;28;20395;-51
2020/12/22 08:27:57;;;;;;;3.22;0.70;;;13.10;99.90;;;;;;5030055;28;20426;-51
2020/12/22 08:30:23;;;;;;;4.50;0.70;;;13.10;99.90;;;;;;5028069;28;20419;-51
2020/12/22 08:32:49;;;;;;;2.50;0.60;;;13.10;99.90;;;;;;5030105;28;20405;-51
2020/12/22 08:35:19;;;;;;;4.68;0.80;;;13.00;99.90;;;;;;5047368;28;20429;-52
2020/12/22 08:37:45;;;;;;;3.00;0.40;;;13.10;99.90;;;;;;5049969;28;20381;-50
2020/12/22 08:40:28;;;;;;;2.60;0.60;;;12.90;99.90;;;;;;5048865;28;20756;-54
2020/12/22 08:42:54;;;;;;;3.10;0.40;;;13.00;99.90;;;;;;5048290;28;20435;-51
2020/12/22 08:45:20;;;;;;;2.80;0.50;;;13.10;99.90;;;;;;5049164;28;20452;-50
2020/12/22 08:47:54;;;;;;;2.47;0.40;;;13.10;99.90;;;;;;5051229;28;20906;-51
2020/12/22 08:50:20;;;;;;;2.38;0.40;;;13.10;99.90;;;;;;5049565;28;20484;-50
2020/12/22 08:52:46;;;;;;;2.60;0.60;;;13.10;99.90;;;;;;5050906;28;20386;-51
2020/12/22 08:55:12;;;;;;;2.28;0.40;;;13.10;99.90;;;;;;5049956;28;20451;-54
2020/12/22 08:57:38;;;;;;;4.90;0.50;;;13.10;99.90;;;;;;5050819;28;20913;-51
2020/12/22 09:00:15;;;;;;;2.35;0.32;;;13.10;99.90;;;;;;5050065;28;20524;-51
2020/12/22 09:02:41;;;;;;;2.70;0.50;;;13.10;99.90;;;;;;5051580;28;20409;-51
2020/12/22 09:05:14;;;;;;;3.25;0.55;;;13.10;99.90;;;;;;5049849;28;20401;-52
2020/12/22 09:07:40;;;;;;;3.40;0.32;;;13.00;99.90;;;;;;5051471;28;20404;-51
2020/12/22 09:10:07;;;;;;;2.47;0.40;;;13.10;99.90;;;;;;5050208;28;20879;-50
2020/12/22 09:12:33;;;;;;;2.50;0.40;;;13.20;99.90;;;;;;5050457;28;20393;-51
2020/12/22 09:14:58;;;;;;;2.50;0.50;;;13.10;99.90;;;;;;5049858;28;20442;-51
2020/12/22 09:17:32;;;;;;;2.57;0.33;;;13.10;99.90;;;;;;5051510;28;20389;-51
2020/12/22 09:19:58;;;;;;;2.40;0.50;;;13.20;99.90;;;;;;5049154;28;20474;-51
2020/12/22 09:22:26;;;;;;;18.33;9.50;;;13.30;99.90;;;;;;5048793;28;21008;-50
2020/12/22 09:24:54;;;;;;;3.10;1.23;;;13.10;99.90;;;;;;5049731;28;20738;-51
2020/12/22 09:27:34;;;;;;;2.75;0.60;;;13.10;99.90;;;;;;5048102;28;20401;-51
2020/12/22 09:30:01;;;;;;;2.90;1.02;;;13.20;99.90;;;;;;5048752;28;20392;-52
2020/12/22 09:32:27;;;;;;;3.50;0.80;;;13.20;99.90;;;;;;5047259;28;20433;-51
2020/12/22 09:34:53;;;;;;;2.20;0.40;;;13.20;99.90;;;;;;5049380;28;21160;-51
2020/12/22 09:37:21;;;;;;;4.82;3.28;;;13.30;99.90;;;;;;5030295;28;20965;-51
2020/12/22 09:39:47;;;;;;;2.30;0.60;;;13.30;99.90;;;;;;5049043;28;21089;-52
2020/12/22 09:42:13;;;;;;;3.50;1.15;;;13.20;99.90;;;;;;5048193;28;20416;-55
2020/12/22 09:44:39;;;;;;;3.20;1.50;;;13.20;99.90;;;;;;5048611;28;20895;-52
2020/12/22 09:47:05;;;;;;;2.90;1.10;;;13.20;99.90;;;;;;5049218;28;20513;-51
2020/12/22 09:49:30;;;;;;;2.60;1.00;;;13.20;99.90;;;;;;5047900;28;20401;-52
2020/12/22 09:51:56;;;;;;;3.00;1.10;;;13.10;99.90;;;;;;5047522;28;20429;-51
2020/12/22 09:54:22;;;;;;;3.47;0.90;;;13.20;99.90;;;;;;5048270;28;21292;-51
2020/12/22 09:56:49;;;;;;;3.53;1.10;;;13.00;99.90;;;;;;5048207;28;20401;-51
2020/12/22 09:59:15;;;;;;;2.90;1.02;;;13.10;99.90;;;;;;5049788;28;20400;-56
2020/12/22 10:01:41;;;;;;;7.20;2.17;;;13.10;99.90;;;;;;5048341;28;20413;-50
2020/12/22 10:04:07;;;;;;;2.75;1.15;;;13.20;99.90;;;;;;5050015;28;20394;-51
2020/12/22 10:06:33;;;;;;;3.10;0.50;;;13.30;99.90;;;;;;5046552;28;21136;-51
2020/12/22 10:08:59;;;;;;;3.97;0.60;;;13.40;99.90;;;;;;5047996;28;20405;-51
2020/12/22 10:11:26;;;;;;;2.60;0.40;;;13.40;99.90;;;;;;5048006;28;20982;-52
2020/12/22 10:13:52;;;;;;;2.50;0.50;;;13.50;99.90;;;;;;5048812;28;20405;-51
2020/12/22 10:16:20;;;;;;;3.20;0.82;;;13.50;99.90;;;;;;5046394;28;20489;-51
2020/12/22 10:18:45;;;;;;;3.50;1.20;;;13.70;99.90;;;;;;5032139;28;20846;-54
2020/12/22 10:21:13;;;;;;;3.90;1.70;;;13.80;99.90;;;;;;5046417;28;20406;-50
2020/12/22 10:23:40;;;;;;;2.83;1.60;;;13.70;99.90;;;;;;5049335;28;20416;-50
2020/12/22 10:26:07;;;;;;;2.80;1.20;;;13.70;99.90;;;;;;5048075;28;20397;-51
2020/12/22 10:28:36;;;;;;;2.97;1.85;;;13.80;99.90;;;;;;5046779;28;20420;-50
2020/12/22 10:31:02;;;;;;;3.30;1.75;;;13.90;99.90;;;;;;5047591;28;20401;-51
2020/12/22 10:33:28;;;;;;;5.05;4.15;;;14.00;99.90;;;;;;5046959;28;20418;-50
2020/12/22 10:35:54;;;;;;;4.20;3.25;;;14.00;99.90;;;;;;5047657;28;20416;-53
2020/12/22 10:38:20;;;;;;;13.70;9.97;;;13.90;99.90;;;;;;5047313;28;20393;-50
2020/12/22 10:40:46;;;;;;;7.25;5.38;;;13.90;99.90;;;;;;5046906;28;20386;-51
2020/12/22 10:43:12;;;;;;;4.03;3.00;;;14.00;99.90;;;;;;5049190;28;20404;-51
2020/12/22 10:45:39;;;;;;;3.42;2.83;;;12.40;99.90;;;;;;5047165;28;20782;-52
2020/12/22 10:48:06;;;;;;;3.00;2.63;;;13.80;99.90;;;;;;5048510;28;20410;-52
2020/12/22 10:50:34;;;;;;;4.32;3.92;;;13.80;99.90;;;;;;5047520;28;20411;-51
2020/12/22 10:53:00;;;;;;;4.10;3.60;;;13.80;99.90;;;;;;5048004;28;20461;-54
2020/12/22 10:55:25;;;;;;;3.57;2.70;;;13.70;99.90;;;;;;5048030;28;20475;-52
2020/12/22 10:57:51;;;;;;;4.20;3.80;;;12.90;99.90;;;;;;5046853;28;20397;-52
2020/12/22 11:00:17;;;;;;;3.60;3.30;;;13.70;99.90;;;;;;5047559;28;20428;-55
2020/12/22 11:02:48;;;;;;;4.78;4.38;;;13.70;99.90;;;;;;5045414;28;20449;-51
2020/12/22 11:05:14;;;;;;;3.53;3.22;;;13.70;99.90;;;;;;5047592;28;20385;-55
2020/12/22 11:07:50;;;;;;;4.00;3.60;;;13.80;99.90;;;;;;5047583;28;20396;-52
2020/12/22 11:10:16;;;;;;;5.47;4.40;;;13.80;99.90;;;;;;5047905;28;20443;-56
2020/12/22 11:12:42;;;;;;;3.60;3.10;;;13.80;99.90;;;;;;5047857;28;20405;-53
2020/12/22 11:15:07;;;;;;;4.43;4.03;;;13.90;99.90;;;;;;5048826;28;20420;-53
2020/12/22 11:17:33;;;;;;;2.90;2.50;;;13.90;99.90;;;;;;5048169;28;20388;-54
2020/12/22 11:19:59;;;;;;;3.20;2.43;;;13.80;99.90;;;;;;5048102;28;20500;-53
2020/12/22 11:22:24;;;;;;;4.35;2.20;;;13.90;99.90;;;;;;5048793;28;20416;-53
2020/12/22 11:24:50;;;;;;;4.00;1.80;;;14.00;99.90;;;;;;5048238;28;20414;-53
2020/12/22 11:27:16;;;;;;;3.70;1.80;;;13.90;99.90;;;;;;5048797;28;20877;-57
2020/12/22 11:29:43;;;;;;;5.22;2.17;;;14.00;99.90;;;;;;5048566;28;20397;-53
2020/12/22 11:32:09;;;;;;;3.00;1.10;;;14.00;99.90;;;;;;5049969;28;20404;-52
2020/12/22 11:34:36;;;;;;;3.50;1.60;;;13.90;99.90;;;;;;5050382;28;20408;-52
2020/12/22 11:37:02;;;;;;;5.10;2.47;;;13.90;99.90;;;;;;5051506;28;20470;-52
2020/12/22 11:39:27;;;;;;;4.50;2.20;;;14.00;99.90;;;;;;5049500;28;20459;-52
2020/12/22 11:41:58;;;;;;;3.10;1.60;;;14.20;99.90;;;;;;5052551;28;20374;-53
2020/12/22 11:44:24;;;;;;;3.60;1.40;;;14.00;99.90;;;;;;5051291;28;20389;-53
2020/12/22 11:46:50;;;;;;;2.70;1.63;;;14.10;99.90;;;;;;5052124;28;20551;-52
2020/12/22 11:49:15;;;;;;;2.90;1.40;;;14.00;99.90;;;;;;5051241;28;20397;-56
2020/12/22 11:51:41;;;;;;;2.50;1.40;;;14.10;99.90;;;;;;5051852;28;20470;-52
2020/12/22 11:54:06;;;;;;;2.70;1.60;;;14.20;99.90;;;;;;5050721;28;20398;-52
2020/12/22 11:56:32;;;;;;;2.90;1.20;;;14.20;99.90;;;;;;5051969;28;20389;-52
2020/12/22 11:58:58;;;;;;;2.80;1.50;;;14.20;99.90;;;;;;5051526;28;20400;-52
2020/12/22 12:01:29;;;;;;;2.60;1.50;;;14.30;99.90;;;;;;5051025;28;20400;-53
2020/12/22 12:03:55;;;;;;;2.40;0.55;;;14.30;99.90;;;;;;5034507;28;20422;-53
2020/12/22 12:06:23;;;;;;;2.50;0.50;;;14.30;99.90;;;;;;5050222;28;20393;-52
2020/12/22 12:08:49;;;;;;;2.50;0.40;;;14.30;99.90;;;;;;5033590;28;20874;-52
2020/12/22 12:11:15;;;;;;;3.00;2.20;;;14.40;99.90;;;;;;5050608;28;20416;-56
2020/12/22 12:13:41;;;;;;;2.60;1.60;;;14.30;99.90;;;;;;5052521;28;20430;-52
2020/12/22 12:16:06;;;;;;;3.00;1.58;;;14.30;99.90;;;;;;5048894;28;20381;-53
2020/12/22 12:18:33;;;;;;;2.60;1.50;;;14.30;99.90;;;;;;5050470;28;20496;-52
2020/12/22 12:20:58;;;;;;;3.30;1.60;;;15.80;99.90;;;;;;5052381;28;20439;-52
2020/12/22 12:23:24;;;;;;;2.70;1.35;;;14.30;99.90;;;;;;5050438;28;20405;-52
2020/12/22 12:25:50;;;;;;;3.10;1.20;;;14.20;99.90;;;;;;5051321;28;20445;-53
2020/12/22 12:28:15;;;;;;;2.87;1.20;;;14.30;99.90;;;;;;5052160;28;20381;-57
2020/12/22 12:30:41;;;;;;;2.70;1.40;;;14.20;99.90;;;;;;5031253;28;20960;-52
2020/12/22 12:33:07;;;;;;;3.50;1.30;;;14.20;99.90;;;;;;5051573;28;20412;-52
2020/12/22 12:35:32;;;;;;;2.45;1.30;;;14.30;99.90;;;;;;5050643;28;20409;-53
2020/12/22 12:37:58;;;;;;;2.50;1.30;;;14.20;99.90;;;;;;5051323;28;20421;-52
2020/12/22 12:40:24;;;;;;;2.60;1.30;;;14.30;99.90;;;;;;5050430;28;20474;-52
2020/12/22 12:42:50;;;;;;;2.50;1.00;;;14.20;99.90;;;;;;5050279;28;20719;-52
2020/12/22 12:45:16;;;;;;;2.60;1.00;;;14.10;99.90;;;;;;5050661;28;20454;-55
2020/12/22 12:47:41;;;;;;;2.50;0.80;;;14.30;99.90;;;;;;5051643;28;20758;-52